Terminal Aerodrome Forecast
Issued by NWS

Current Version | Previous Version | Graphics & Text | Print | Product List | Glossary Off
Versions: 1 2 3 4 5 6 7 8 9 10 11 12 13 14 15 16

000
FTUS41 KILN 022300
TAFLCK
TAF
KLCK 022338Z 0300/0324 VRB04KT P6SM BKN200
     FM030600 11006KT P6SM OVC120
     FM031200 13006KT P6SM OVC050
     FM031400 15009KT 5SM -FZRA BR OVC015
     FM031800 17012KT 3SM -RA BR OVC008
     FM032000 20012KT 2SM -RA BR OVC006=

USA.gov is the U.S. government's official web portal to all federal, state and local government web resources and services.